Time;durP1;ratioP1;P1;durP2;ratioP2;P2;SDS_P1;SDS_P2;PMS_P1;PMS_P2;Temp;Humidity;BMP_temperature;BMP_pressure;BME280_temperature;BME280_humidity;BME280_pressure;Samples;Min_cycle;Max_cycle;Signal;HPM_P1;HPM_P2
2022/03/25 00:01:00;;;;;;;27.70;17.80;;;;;;;13.37;48.16;101935.34;5074317;28;20043;-96
2022/03/25 00:03:26;;;;;;;32.03;17.90;;;;;;;13.22;48.74;101938.81;5074623;28;20054;-96
2022/03/25 00:05:52;;;;;;;39.90;20.23;;;;;;;13.24;48.60;101942.22;5074950;28;20105;-95
2022/03/25 00:08:17;;;;;;;30.77;17.40;;;;;;;13.11;49.03;101947.28;5074527;28;20031;-95
2022/03/25 00:10:43;;;;;;;29.92;18.20;;;;;;;13.06;49.29;101939.63;5074496;28;20387;-94
2022/03/25 00:13:09;;;;;;;31.23;18.65;;;;;;;13.04;49.43;101935.38;5074691;28;20243;-96
2022/03/25 00:15:35;;;;;;;30.85;18.48;;;;;;;13.06;49.43;101942.25;5074718;28;20382;-96
2022/03/25 00:18:00;;;;;;;27.92;18.08;;;;;;;13.02;49.10;101937.25;5074711;28;20036;-96
2022/03/25 00:20:25;;;;;;;28.13;17.38;;;;;;;12.81;49.65;101933.97;5074560;28;20025;-96
2022/03/25 00:22:51;;;;;;;40.78;20.23;;;;;;;12.71;49.74;101933.59;5074488;28;20024;-96
2022/03/25 00:25:17;;;;;;;31.00;18.98;;;;;;;12.79;49.73;101936.66;5074627;28;20020;-96
2022/03/25 00:27:42;;;;;;;36.83;19.35;;;;;;;12.80;49.32;101938.38;5074421;28;20016;-96
2022/03/25 00:30:08;;;;;;;37.40;19.52;;;;;;;12.79;49.34;101926.13;5074677;28;20028;-96
2022/03/25 00:32:33;;;;;;;31.60;19.55;;;;;;;12.74;49.27;101932.56;5072627;28;20078;-96
2022/03/25 00:34:59;;;;;;;30.52;19.98;;;;;;;12.66;49.47;101930.38;5074129;28;20119;-95
2022/03/25 00:37:25;;;;;;;35.72;20.08;;;;;;;12.66;49.31;101936.47;5074402;28;20071;-96
2022/03/25 00:39:52;;;;;;;35.00;19.48;;;;;;;12.63;49.54;101933.16;5074192;28;20078;-96
2022/03/25 00:42:17;;;;;;;34.15;19.45;;;;;;;12.62;49.24;101928.81;5074008;28;20025;-95
2022/03/25 00:44:44;;;;;;;33.95;19.77;;;;;;;12.61;49.64;101932.38;5074390;28;20035;-96
2022/03/25 00:47:10;;;;;;;37.70;19.23;;;;;;;12.54;49.47;101926.59;5074194;28;20060;-96
2022/03/25 00:49:35;;;;;;;38.47;20.45;;;;;;;12.50;49.58;101925.88;5074135;28;20383;-95
2022/03/25 00:52:01;;;;;;;29.48;18.73;;;;;;;12.41;49.91;101930.78;5073800;28;20024;-96
2022/03/25 00:54:27;;;;;;;34.42;18.65;;;;;;;12.35;49.83;101921.41;5074320;28;20486;-95
2022/03/25 00:56:52;;;;;;;29.20;17.30;;;;;;;12.43;49.96;101936.81;5073897;28;20386;-96
2022/03/25 00:59:17;;;;;;;29.67;18.33;;;;;;;12.37;50.04;101935.34;5073889;28;20024;-95
2022/03/25 01:01:43;;;;;;;30.17;18.88;;;;;;;12.30;49.99;101937.44;5073908;28;20028;-96
2022/03/25 01:04:09;;;;;;;36.22;18.23;;;;;;;12.25;49.86;101936.81;5075208;28;20033;-95
2022/03/25 01:06:35;;;;;;;34.15;19.33;;;;;;;12.21;50.44;101937.91;5082618;28;20005;-93
2022/03/25 01:09:02;;;;;;;34.33;17.60;;;;;;;12.22;50.39;101947.53;5097225;28;20076;-93
2022/03/25 01:11:27;;;;;;;39.22;19.95;;;;;;;12.02;49.63;101940.59;5097156;28;20043;-95
2022/03/25 01:13:53;;;;;;;34.22;20.23;;;;;;;11.85;50.15;101944.03;5085682;28;20033;-95
2022/03/25 01:16:18;;;;;;;37.30;19.38;;;;;;;11.89;49.99;101929.84;5077217;28;20021;-95
2022/03/25 01:18:44;;;;;;;34.75;19.60;;;;;;;11.89;50.37;101935.09;5077178;28;20024;-95
2022/03/25 01:21:10;;;;;;;34.65;20.73;;;;;;;11.92;49.92;101933.25;5074007;28;20239;-95
2022/03/25 01:23:35;;;;;;;32.90;19.90;;;;;;;11.85;49.68;101924.78;5073175;28;20012;-95
2022/03/25 01:26:03;;;;;;;37.28;20.98;;;;;;;11.83;49.77;101930.09;5073555;28;20367;-96
2022/03/25 01:28:34;;;;;;;38.50;20.63;;;;;;;11.87;49.27;101929.03;5073268;28;20017;-96
2022/03/25 01:31:00;;;;;;;41.67;20.98;;;;;;;11.80;49.33;101932.03;5072928;28;20422;-96
2022/03/25 01:33:27;;;;;;;40.50;21.63;;;;;;;11.83;48.97;101921.38;5072968;28;20020;-95
2022/03/25 01:35:52;;;;;;;38.78;21.48;;;;;;;11.76;48.99;101933.09;5072753;28;20442;-96
2022/03/25 01:38:18;;;;;;;37.63;19.90;;;;;;;11.68;49.38;101929.06;5072772;28;20048;-94
2022/03/25 01:40:43;;;;;;;36.28;21.20;;;;;;;11.62;49.26;101923.25;5072672;28;20120;-94
2022/03/25 01:43:09;;;;;;;41.70;20.70;;;;;;;11.54;49.54;101915.72;5071994;28;20082;-95
2022/03/25 01:45:37;;;;;;;39.60;21.10;;;;;;;11.63;49.33;101917.91;5072342;28;20032;-94
2022/03/25 01:48:08;;;;;;;41.25;21.58;;;;;;;11.70;49.27;101918.47;5072325;28;20028;-95
2022/03/25 01:50:33;;;;;;;42.13;22.57;;;;;;;11.68;49.11;101915.06;5072050;28;20029;-95
2022/03/25 01:52:59;;;;;;;47.25;21.25;;;;;;;11.62;48.73;101912.72;5072343;28;20681;-95
2022/03/25 01:55:28;;;;;;;39.70;21.15;;;;;;;11.66;48.76;101909.88;5072883;28;20077;-94
2022/03/25 01:57:57;;;;;;;40.45;21.88;;;;;;;11.76;48.09;101907.63;5074231;28;20039;-94
2022/03/25 02:00:24;;;;;;;43.28;22.52;;;;;;;11.74;48.27;101909.50;5081558;28;20074;-95
2022/03/25 02:02:50;;;;;;;41.03;21.80;;;;;;;11.72;48.64;101906.09;5082513;28;20115;-93
2022/03/25 02:05:17;;;;;;;39.92;21.08;;;;;;;11.66;48.50;101901.13;5083294;28;20024;-93
2022/03/25 02:07:43;;;;;;;42.20;21.55;;;;;;;11.63;48.47;101906.53;5083292;28;20028;-93
2022/03/25 02:10:09;;;;;;;39.20;20.88;;;;;;;11.65;48.51;101899.41;5080343;28;20093;-93
2022/03/25 02:12:35;;;;;;;37.63;21.60;;;;;;;11.62;48.62;101904.84;5077536;28;20050;-94
2022/03/25 02:15:01;;;;;;;41.22;22.05;;;;;;;11.56;48.53;101910.41;5078394;28;20050;-93
2022/03/25 02:17:27;;;;;;;38.40;21.02;;;;;;;11.46;48.84;101910.81;5080612;28;20545;-93
2022/03/25 02:19:52;;;;;;;40.67;22.20;;;;;;;11.44;49.14;101906.56;5081513;28;20113;-93
2022/03/25 02:22:18;;;;;;;43.55;21.02;;;;;;;11.37;49.14;101900.72;5081857;28;20074;-94
2022/03/25 02:24:43;;;;;;;33.53;19.85;;;;;;;11.40;49.47;101907.66;5081567;28;20378;-93
2022/03/25 02:27:12;;;;;;;40.08;21.10;;;;;;;11.45;49.50;101913.53;5079556;28;20055;-94
2022/03/25 02:29:39;;;;;;;42.38;22.10;;;;;;;11.28;50.02;101907.28;5080582;28;20020;-94
2022/03/25 02:32:04;;;;;;;40.00;21.80;;;;;;;11.11;50.10;101909.84;5080589;28;20124;-93
2022/03/25 02:34:30;;;;;;;39.20;21.30;;;;;;;11.06;50.10;101912.69;5079851;28;20036;-93
2022/03/25 02:36:56;;;;;;;42.60;22.85;;;;;;;11.03;50.09;101919.88;5074031;28;20418;-96
2022/03/25 02:39:22;;;;;;;44.05;21.70;;;;;;;10.96;50.77;101914.06;5073118;28;20500;-96
2022/03/25 02:41:48;;;;;;;40.53;21.35;;;;;;;10.94;50.30;101912.38;5072209;28;20021;-94
2022/03/25 02:44:13;;;;;;;42.85;22.52;;;;;;;10.87;50.55;101917.09;5072397;28;20023;-95
2022/03/25 02:46:39;;;;;;;39.13;21.48;;;;;;;10.84;50.39;101923.34;5072783;28;20068;-95
2022/03/25 02:49:05;;;;;;;40.10;22.00;;;;;;;10.91;50.90;101916.88;5071831;28;20033;-94
2022/03/25 02:51:30;;;;;;;42.95;20.85;;;;;;;10.93;50.42;101921.22;5071873;28;20024;-95
2022/03/25 02:53:56;;;;;;;39.38;21.13;;;;;;;10.93;50.46;101914.19;5073492;28;20437;-95
2022/03/25 02:56:22;;;;;;;37.92;20.77;;;;;;;10.92;50.25;101920.38;5075027;28;20027;-95
2022/03/25 02:58:47;;;;;;;42.72;21.80;;;;;;;10.88;50.89;101924.03;5076233;28;20028;-94
2022/03/25 03:01:13;;;;;;;41.33;21.30;;;;;;;10.87;50.72;101923.19;5075467;28;20089;-94
2022/03/25 03:03:40;;;;;;;41.38;23.15;;;;;;;10.84;50.85;101920.72;5075648;28;20021;-94
2022/03/25 03:06:06;;;;;;;39.15;21.45;;;;;;;10.64;51.39;101915.47;5076007;28;20418;-96
2022/03/25 03:08:31;;;;;;;38.45;20.13;;;;;;;10.76;51.43;101917.53;5075803;28;20039;-95
2022/03/25 03:10:56;;;;;;;39.92;21.73;;;;;;;10.57;51.66;101906.16;5075470;28;20028;-96
2022/03/25 03:13:22;;;;;;;37.90;22.13;;;;;;;10.58;52.02;101913.97;5075279;28;20386;-93
2022/03/25 03:15:48;;;;;;;37.53;21.55;;;;;;;10.61;51.69;101920.88;5075100;28;20036;-94
2022/03/25 03:18:14;;;;;;;42.53;22.50;;;;;;;10.57;52.10;101909.66;5075663;28;20378;-94
2022/03/25 03:20:40;;;;;;;43.92;22.27;;;;;;;10.56;51.94;101910.56;5062539;28;20609;-94
2022/03/25 03:23:07;;;;;;;35.70;21.13;;;;;;;10.59;51.15;101907.81;5055333;28;20120;-93
2022/03/25 03:25:33;;;;;;;39.28;21.48;;;;;;;10.63;51.45;101914.63;5055012;28;20055;-93
2022/03/25 03:27:58;;;;;;;42.67;22.25;;;;;;;10.61;51.53;101905.97;5055237;28;20028;-94
2022/03/25 03:30:23;;;;;;;37.88;22.63;;;;;;;10.67;51.42;101905.69;5064554;28;20027;-94
2022/03/25 03:32:55;;;;;;;39.95;22.45;;;;;;;10.60;51.67;101908.66;5075127;28;20028;-95
2022/03/25 03:35:20;;;;;;;41.90;23.95;;;;;;;10.59;51.16;101909.59;5075303;28;20021;-94
2022/03/25 03:37:46;;;;;;;42.70;21.83;;;;;;;10.56;51.42;101902.66;5075153;28;20024;-95
2022/03/25 03:40:14;;;;;;;44.50;23.95;;;;;;;10.58;51.97;101906.06;5074969;28;20020;-96
2022/03/25 03:42:40;;;;;;;42.42;23.13;;;;;;;10.49;51.59;101912.59;5075192;28;20024;-95
2022/03/25 03:45:08;;;;;;;42.95;22.33;;;;;;;10.49;52.00;101919.63;5075151;28;20020;-95
2022/03/25 03:47:34;;;;;;;44.50;23.13;;;;;;;10.48;51.73;101920.53;5076386;28;20024;-96
2022/03/25 03:49:59;;;;;;;41.78;21.77;;;;;;;10.48;52.13;101916.13;5074819;28;20608;-95
2022/03/25 03:52:25;;;;;;;39.63;22.10;;;;;;;10.54;51.74;101917.66;5074785;28;20407;-95
2022/03/25 03:54:50;;;;;;;51.50;23.23;;;;;;;10.18;52.36;101913.03;5074945;28;20024;-95
2022/03/25 03:57:16;;;;;;;42.10;22.77;;;;;;;10.15;52.16;101922.78;5074871;28;20023;-95
2022/03/25 03:59:41;;;;;;;42.08;22.48;;;;;;;10.23;52.37;101913.69;5074508;28;20109;-95
2022/03/25 04:02:07;;;;;;;41.60;24.13;;;;;;;10.21;52.15;101912.91;5074580;28;20497;-95
2022/03/25 04:04:33;;;;;;;44.15;23.15;;;;;;;10.25;52.46;101919.72;5073929;28;20025;-95
2022/03/25 04:06:59;;;;;;;54.55;26.13;;;;;;;10.29;52.06;101917.84;5073815;28;20031;-95
2022/03/25 04:09:24;;;;;;;45.03;25.40;;;;;;;10.28;52.42;101900.38;5074341;28;20383;-95
2022/03/25 04:11:49;;;;;;;46.53;25.83;;;;;;;10.35;52.31;101916.72;5074737;28;20078;-96
2022/03/25 04:14:15;;;;;;;48.38;24.65;;;;;;;10.38;51.94;101919.25;5075016;28;20021;-95
2022/03/25 04:16:40;;;;;;;48.83;25.33;;;;;;;10.48;51.70;101915.28;5074659;28;20029;-96
2022/03/25 04:19:06;;;;;;;51.85;26.40;;;;;;;10.56;51.30;101918.44;5074877;28;20021;-95
2022/03/25 04:21:31;;;;;;;43.80;24.23;;;;;;;10.63;51.56;101922.50;5074334;28;20032;-94
2022/03/25 04:23:57;;;;;;;41.00;23.30;;;;;;;10.60;51.25;101932.28;5074825;28;20027;-94
2022/03/25 04:26:24;;;;;;;47.22;22.92;;;;;;;10.55;51.21;101931.66;5074370;28;20451;-95
2022/03/25 04:28:50;;;;;;;44.97;24.15;;;;;;;10.56;51.21;101934.19;5074363;28;20440;-94
2022/03/25 04:31:15;;;;;;;43.90;24.17;;;;;;;10.54;51.41;101941.28;5073935;28;20028;-95
2022/03/25 04:33:40;;;;;;;43.88;22.88;;;;;;;10.36;51.49;101937.69;5073787;28;20147;-95
2022/03/25 04:36:06;;;;;;;48.45;25.35;;;;;;;10.31;51.61;101939.66;5074168;28;20024;-96
2022/03/25 04:38:32;;;;;;;46.58;25.58;;;;;;;10.21;51.45;101927.78;5073711;28;20491;-94
2022/03/25 04:40:57;;;;;;;46.47;23.80;;;;;;;10.25;51.60;101942.50;5074486;28;20162;-94
2022/03/25 04:43:23;;;;;;;47.40;25.63;;;;;;;10.20;51.69;101940.06;5073546;28;20056;-95
2022/03/25 04:45:48;;;;;;;47.65;26.02;;;;;;;10.22;52.24;101937.38;5073917;28;20036;-95
2022/03/25 04:48:14;;;;;;;47.05;23.45;;;;;;;10.22;51.87;101951.34;5064836;28;20025;-96
2022/03/25 04:50:40;;;;;;;52.00;26.88;;;;;;;10.29;52.23;101952.81;5063529;28;20033;-96
2022/03/25 04:53:06;;;;;;;53.30;26.20;;;;;;;10.26;51.96;101947.69;5075528;28;20032;-95
2022/03/25 04:55:32;;;;;;;47.65;25.23;;;;;;;10.26;52.00;101952.09;5073906;28;20028;-95
2022/03/25 04:57:58;;;;;;;49.20;25.73;;;;;;;10.18;52.21;101939.28;5074067;28;20032;-95
2022/03/25 05:00:23;;;;;;;46.80;24.45;;;;;;;10.23;51.92;101947.81;5074273;28;20133;-96
2022/03/25 05:02:48;;;;;;;51.15;28.95;;;;;;;10.18;52.19;101947.16;5074089;28;20035;-95
2022/03/25 05:05:15;;;;;;;56.30;27.35;;;;;;;10.18;52.11;101947.16;5073749;28;20033;-95
2022/03/25 05:07:44;;;;;;;52.38;25.85;;;;;;;10.28;51.83;101942.38;5073675;28;20017;-95
2022/03/25 05:10:11;;;;;;;53.17;26.30;;;;;;;10.35;52.18;101961.38;5073425;28;20028;-95
2022/03/25 05:12:38;;;;;;;47.75;25.70;;;;;;;10.41;51.59;101963.75;5073666;28;20032;-95
2022/03/25 05:15:04;;;;;;;51.63;27.50;;;;;;;10.35;51.65;101959.63;5073598;28;20021;-96
2022/03/25 05:17:29;;;;;;;47.78;24.60;;;;;;;10.42;51.54;101962.81;5074373;28;20024;-95
2022/03/25 05:19:55;;;;;;;48.80;27.40;;;;;;;10.39;51.96;101957.72;5073267;28;20028;-96
2022/03/25 05:22:21;;;;;;;53.50;27.75;;;;;;;10.31;52.16;101950.16;5073441;28;20111;-96
2022/03/25 05:24:46;;;;;;;51.35;26.73;;;;;;;10.31;51.50;101960.66;5072998;28;20065;-95
2022/03/25 05:27:12;;;;;;;44.25;23.75;;;;;;;10.28;51.72;101961.59;5073462;28;20089;-95
2022/03/25 05:29:37;;;;;;;44.58;23.52;;;;;;;10.23;51.91;101967.94;5073350;28;20467;-96
2022/03/25 05:32:03;;;;;;;45.55;21.95;;;;;;;10.23;51.91;101963.56;5073344;28;20035;-96
2022/03/25 05:34:28;;;;;;;42.63;22.10;;;;;;;10.17;51.69;101966.47;5073814;28;20025;-95
2022/03/25 05:36:53;;;;;;;40.85;22.63;;;;;;;10.13;51.87;101967.50;5073574;28;20073;-95
2022/03/25 05:39:19;;;;;;;43.50;23.65;;;;;;;10.03;52.59;101963.53;5073026;28;20060;-95
2022/03/25 05:41:44;;;;;;;43.95;24.48;;;;;;;9.99;52.19;101961.94;5073018;28;20013;-93
2022/03/25 05:44:11;;;;;;;50.47;27.40;;;;;;;9.97;52.55;101971.66;5073091;28;20115;-95
2022/03/25 05:46:38;;;;;;;51.92;25.40;;;;;;;9.87;52.27;101963.28;5072958;28;20074;-95
2022/03/25 05:49:04;;;;;;;52.10;29.50;;;;;;;9.87;52.70;101966.78;5073458;28;20025;-95
2022/03/25 05:51:31;;;;;;;56.28;30.02;;;;;;;9.84;52.48;101972.16;5075902;28;20033;-96
2022/03/25 05:53:56;;;;;;;58.15;31.45;;;;;;;9.87;52.44;101976.41;5094144;28;20020;-92
2022/03/25 05:56:22;;;;;;;53.92;28.05;;;;;;;9.87;52.70;101976.41;5095840;28;20011;-92
2022/03/25 05:58:48;;;;;;;53.53;29.17;;;;;;;9.88;52.91;101983.38;5089703;28;20088;-95
2022/03/25 06:01:13;;;;;;;55.25;27.95;;;;;;;9.90;52.83;101985.00;5077659;28;20113;-95
2022/03/25 06:03:39;;;;;;;49.95;26.67;;;;;;;9.91;52.59;101980.63;5076473;28;20178;-94
2022/03/25 06:06:05;;;;;;;53.20;26.23;;;;;;;9.87;52.70;101990.41;5073272;28;20043;-96
2022/03/25 06:08:31;;;;;;;55.45;28.95;;;;;;;9.88;52.68;101986.84;5076417;28;20044;-94
2022/03/25 06:10:59;;;;;;;48.30;26.88;;;;;;;9.87;53.21;101990.41;5070531;28;20534;-94
2022/03/25 06:13:26;;;;;;;48.72;26.23;;;;;;;9.86;52.65;101988.69;5070349;28;20032;-95
2022/03/25 06:15:52;;;;;;;49.33;25.58;;;;;;;9.88;52.57;101993.88;5071624;28;20037;-96
2022/03/25 06:18:18;;;;;;;49.30;26.52;;;;;;;9.86;52.54;101993.94;5070661;28;20025;-87
2022/03/25 06:20:43;;;;;;;46.67;24.95;;;;;;;9.85;53.20;101992.22;5079681;28;20401;-89
2022/03/25 06:23:08;;;;;;;45.40;24.73;;;;;;;9.88;53.03;101999.97;5078297;28;20035;-88
2022/03/25 06:25:34;;;;;;;46.38;25.80;;;;;;;9.93;53.17;102000.66;5072930;28;20029;-89
2022/03/25 06:28:01;;;;;;;48.85;27.08;;;;;;;9.89;53.27;101999.06;5080219;28;20043;-88
2022/03/25 06:30:31;;;;;;;48.15;24.70;;;;;;;9.86;53.31;102000.94;5079885;28;20032;-88
2022/03/25 06:32:57;;;;;;;44.88;24.63;;;;;;;9.98;53.46;102003.09;5081926;28;20094;-89
2022/03/25 06:35:22;;;;;;;51.50;24.95;;;;;;;9.94;53.01;102006.75;5070968;28;20046;-88
2022/03/25 06:37:48;;;;;;;49.35;24.75;;;;;;;9.98;53.12;102010.09;5076410;28;20467;-90
2022/03/25 06:40:15;;;;;;;54.38;27.17;;;;;;;10.00;53.43;102018.78;5069735;28;20039;-89
2022/03/25 06:42:42;;;;;;;49.00;24.38;;;;;;;10.05;53.15;102011.53;5076969;28;20024;-88
2022/03/25 06:45:10;;;;;;;50.60;24.88;;;;;;;10.13;52.88;102014.75;5084968;28;20032;-88
2022/03/25 06:47:36;;;;;;;44.72;23.80;;;;;;;10.18;52.62;102015.41;5088783;28;20123;-88
2022/03/25 06:50:07;;;;;;;44.15;27.40;;;;;;;10.28;52.64;102008.00;5076540;28;20059;-88
2022/03/25 06:52:33;;;;;;;45.72;24.30;;;;;;;10.31;52.76;102016.66;5073216;28;20050;-89
2022/03/25 06:54:58;;;;;;;48.22;26.50;;;;;;;10.36;52.90;102012.97;5090160;28;20600;-90
2022/03/25 06:57:24;;;;;;;45.03;26.75;;;;;;;10.46;52.83;102023.00;5075398;28;20850;-87
2022/03/25 06:59:50;;;;;;;49.35;26.23;;;;;;;10.55;52.41;102019.16;5076510;28;20033;-89
2022/03/25 07:02:15;;;;;;;43.25;25.10;;;;;;;10.61;52.34;102021.53;5070532;28;20486;-86
2022/03/25 07:04:42;;;;;;;48.53;24.92;;;;;;;10.70;52.35;102021.16;5076275;28;20036;-94
2022/03/25 07:07:08;;;;;;;41.22;23.80;;;;;;;10.85;52.16;102027.50;5070583;28;20040;-94
2022/03/25 07:09:35;;;;;;;47.38;24.58;;;;;;;11.02;51.82;102026.78;5072743;28;20035;-95
2022/03/25 07:12:01;;;;;;;46.08;25.92;;;;;;;11.18;51.62;102020.84;5081517;28;20040;-94
2022/03/25 07:14:26;;;;;;;41.08;22.92;;;;;;;11.32;51.22;102024.56;5088311;28;20032;-94
2022/03/25 07:16:52;;;;;;;46.03;25.45;;;;;;;11.47;50.22;102037.91;5080809;28;20182;-94
2022/03/25 07:19:17;;;;;;;42.20;24.13;;;;;;;11.57;50.51;102033.97;5067248;28;20028;-88
2022/03/25 07:21:43;;;;;;;43.85;23.08;;;;;;;11.71;50.12;102036.81;5065472;28;20082;-92
2022/03/25 07:24:09;;;;;;;43.40;25.48;;;;;;;11.89;50.22;102043.00;5068484;28;20025;-91
2022/03/25 07:26:35;;;;;;;46.72;24.75;;;;;;;12.12;49.25;102029.66;5068157;28;20028;-89
2022/03/25 07:29:01;;;;;;;39.20;23.23;;;;;;;12.09;49.41;102028.88;5062072;28;20427;-90
2022/03/25 07:31:28;;;;;;;49.72;25.40;;;;;;;12.63;49.12;102033.28;5064182;28;20040;-88
2022/03/25 07:33:57;;;;;;;44.55;23.67;;;;;;;13.39;48.02;102041.66;5060942;28;20042;-88
2022/03/25 07:36:23;;;;;;;42.85;24.38;;;;;;;13.87;46.58;102037.25;5069972;28;20027;-89
2022/03/25 07:38:49;;;;;;;42.88;24.30;;;;;;;14.50;45.52;102030.16;5065458;28;20103;-89
2022/03/25 07:41:15;;;;;;;41.45;24.95;;;;;;;15.03;44.15;102027.94;5057594;28;20079;-89
2022/03/25 07:43:41;;;;;;;42.67;25.05;;;;;;;15.18;43.69;102034.06;5061808;28;20056;-92
2022/03/25 07:46:06;;;;;;;41.83;24.15;;;;;;;15.47;43.12;102041.06;5069071;28;20124;-89
2022/03/25 07:48:32;;;;;;;44.95;24.17;;;;;;;15.71;42.41;102045.75;5065793;28;20380;-88
2022/03/25 07:50:57;;;;;;;41.17;25.67;;;;;;;15.97;42.26;102045.91;5055322;28;20040;-87
2022/03/25 07:53:23;;;;;;;42.72;25.83;;;;;;;16.24;41.75;102045.91;5055349;28;20360;-88
2022/03/25 07:55:50;;;;;;;46.25;25.42;;;;;;;16.69;40.54;102040.31;5049586;28;20029;-89
2022/03/25 07:58:20;;;;;;;43.65;25.15;;;;;;;17.14;40.36;102046.94;5069291;28;20024;-88
2022/03/25 08:00:49;;;;;;;45.22;25.92;;;;;;;17.81;39.48;102043.94;5064192;28;20342;-88
2022/03/25 08:03:16;;;;;;;42.00;24.83;;;;;;;18.49;38.20;102051.41;5052304;28;20029;-89
2022/03/25 08:05:42;;;;;;;47.75;27.05;;;;;;;19.37;36.70;102051.72;5052720;28;20025;-88
2022/03/25 08:08:08;;;;;;;44.75;26.13;;;;;;;20.14;35.94;102042.88;5055261;28;20033;-87
2022/03/25 08:10:34;;;;;;;42.00;24.75;;;;;;;20.64;34.44;102054.81;5058634;28;20076;-88
2022/03/25 08:13:00;;;;;;;36.38;24.08;;;;;;;21.35;33.60;102052.22;5057288;28;20128;-89
2022/03/25 08:15:27;;;;;;;43.40;25.77;;;;;;;21.76;32.29;102061.94;5068591;28;20037;-87
2022/03/25 08:18:00;;;;;;;39.88;25.67;;;;;;;22.31;31.79;102058.78;5060013;28;20020;-89
2022/03/25 08:20:37;;;;;;;38.55;25.67;;;;;;;22.66;31.69;102064.56;5051546;28;20066;-89
2022/03/25 08:23:04;;;;;;;39.70;25.05;;;;;;;23.29;31.40;102067.50;5062577;28;20064;-90
2022/03/25 08:28:17;;;;;;;43.25;26.58;;;;;;;24.02;29.93;102064.00;5060517;28;20505;-89
2022/03/25 08:30:43;;;;;;;41.10;25.98;;;;;;;24.37;29.97;102065.03;5053477;28;20037;-88
2022/03/25 08:33:10;;;;;;;38.80;25.65;;;;;;;24.40;29.82;102056.63;5066779;28;20040;-88
2022/03/25 08:35:37;;;;;;;41.35;26.05;;;;;;;24.74;29.55;102069.34;5048102;28;20116;-88
2022/03/25 08:38:03;;;;;;;44.90;26.88;;;;;;;25.33;29.09;102070.38;5052116;28;20039;-88
2022/03/25 08:40:30;;;;;;;46.60;28.48;;;;;;;25.59;27.53;102074.84;5055745;28;20029;-89
2022/03/25 08:42:56;;;;;;;45.55;29.67;;;;;;;26.06;27.90;102071.66;5058346;28;20089;-89
2022/03/25 08:45:22;;;;;;;48.85;30.95;;;;;;;26.41;27.23;102076.91;5062135;28;20028;-88
2022/03/25 08:47:51;;;;;;;53.95;32.53;;;;;;;26.58;26.26;102064.25;5056418;28;20028;-89
2022/03/25 08:50:17;;;;;;;49.70;32.75;;;;;;;26.84;26.36;102064.09;5052035;28;20035;-88
2022/03/25 08:52:44;;;;;;;45.28;30.00;;;;;;;26.76;26.47;102066.78;5053932;28;20048;-89
2022/03/25 08:55:11;;;;;;;51.47;32.30;;;;;;;26.39;26.43;102082.47;5051871;28;20029;-88
2022/03/25 08:57:38;;;;;;;46.15;29.90;;;;;;;26.47;26.55;102077.06;5050366;28;20371;-88
2022/03/25 09:00:06;;;;;;;50.53;31.95;;;;;;;27.07;25.80;102081.25;5065249;28;20123;-89
2022/03/25 09:02:32;;;;;;;46.85;30.67;;;;;;;27.52;25.69;102078.06;5068502;28;20376;-89
2022/03/25 09:04:57;;;;;;;47.13;30.30;;;;;;;27.65;24.89;102079.19;5063391;28;20107;-89
2022/03/25 09:07:23;;;;;;;45.03;30.15;;;;;;;27.93;24.48;102076.00;5060846;28;20031;-89
2022/03/25 09:09:48;;;;;;;44.90;29.75;;;;;;;28.45;24.08;102075.25;5049945;28;20067;-90
2022/03/25 09:12:13;;;;;;;46.72;31.92;;;;;;;28.39;23.84;102078.69;5048549;28;20063;-90
2022/03/25 09:14:39;;;;;;;45.53;30.90;;;;;;;28.86;23.72;102076.78;5054389;28;20102;-88
2022/03/25 09:17:05;;;;;;;41.70;28.95;;;;;;;29.10;24.07;102083.78;5067691;28;20032;-88
2022/03/25 09:19:30;;;;;;;47.95;30.75;;;;;;;28.98;23.88;102082.56;5067341;28;20117;-92
2022/03/25 09:21:56;;;;;;;56.38;34.22;;;;;;;28.74;22.63;102078.28;5051157;28;20033;-91
2022/03/25 09:24:21;;;;;;;56.45;34.95;;;;;;;28.47;22.71;102080.50;5051287;28;20033;-92
2022/03/25 09:26:46;;;;;;;49.13;33.45;;;;;;;28.74;22.34;102089.91;5071555;28;20147;-91
2022/03/25 09:29:12;;;;;;;49.97;33.40;;;;;;;29.17;22.59;102084.75;5066682;28;20032;-90
2022/03/25 09:31:38;;;;;;;54.83;33.70;;;;;;;29.29;22.33;102081.59;5072580;28;20112;-91
2022/03/25 09:36:48;;;;;;;52.50;33.90;;;;;;;30.08;22.45;102080.88;5058937;28;20031;-90
2022/03/25 09:39:13;;;;;;;50.30;30.92;;;;;;;30.04;21.31;102086.66;5061507;28;20592;-91
2022/03/25 09:41:39;;;;;;;54.65;32.75;;;;;;;29.33;19.94;102091.00;5054649;28;20391;-90
2022/03/25 09:44:04;;;;;;;46.25;28.77;;;;;;;29.53;20.80;102081.25;5053327;28;20021;-90
2022/03/25 09:46:30;;;;;;;43.83;29.27;;;;;;;29.92;19.95;102082.78;5056483;28;20058;-92
2022/03/25 09:48:56;;;;;;;45.13;29.15;;;;;;;29.60;19.60;102084.91;5059687;28;20368;-91
2022/03/25 09:51:22;;;;;;;44.00;29.35;;;;;;;30.07;19.52;102084.59;5054400;28;20032;-91
2022/03/25 09:53:48;;;;;;;51.20;29.83;;;;;;;29.27;19.28;102085.31;5067280;28;20093;-91
2022/03/25 09:56:17;;;;;;;43.30;26.83;;;;;;;29.55;19.24;102089.19;5072181;28;20394;-90
2022/03/25 09:58:42;;;;;;;36.67;23.00;;;;;;;30.29;19.16;102088.13;5063169;28;20036;-90
2022/03/25 10:01:07;;;;;;;37.22;24.27;;;;;;;30.52;19.09;102088.78;5060305;28;20029;-90
2022/03/25 10:03:36;;;;;;;32.85;22.48;;;;;;;30.70;18.13;102091.00;5052896;28;20108;-89
2022/03/25 10:06:02;;;;;;;36.55;23.27;;;;;;;30.03;18.82;102094.97;5058770;28;20027;-91
2022/03/25 10:08:34;;;;;;;33.70;22.38;;;;;;;30.04;19.53;102081.25;5059115;28;20111;-91
2022/03/25 10:11:31;;;;;;;33.97;23.48;;;;;;;30.21;19.46;102086.38;5066667;28;20059;-90
2022/03/25 10:14:23;;;;;;;35.15;23.80;;;;;;;30.07;19.88;102087.31;5064583;28;20025;-91
2022/03/25 10:16:49;;;;;;;;;;;;;;;29.09;19.76;102087.53;5059453;28;20065;-90
2022/03/25 10:19:22;;;;;;;41.15;26.52;;;;;;;27.59;21.46;102093.38;5052166;28;19909;-90
2022/03/25 10:22:01;;;;;;;42.58;26.17;;;;;;;27.35;22.19;102090.75;5065474;28;20028;-91
2022/03/25 10:24:48;;;;;;;48.10;30.00;;;;;;;26.67;22.38;102095.63;5071147;28;20025;-91
2022/03/25 10:27:24;;;;;;;41.63;28.67;;;;;;;27.01;22.82;102094.53;5071577;28;20028;-92
2022/03/25 10:29:56;;;;;;;45.45;29.17;;;;;;;27.15;22.67;102093.00;5071631;28;20025;-92
2022/03/25 10:32:25;;;;;;;49.20;30.65;;;;;;;26.96;22.77;102095.06;5071423;28;20496;-88
2022/03/25 10:35:19;;;;;;;52.38;31.23;;;;;;;27.78;22.65;102099.34;5061672;28;20025;-89
2022/03/25 10:37:58;;;;;;;50.80;30.50;;;;;;;28.25;22.84;102087.59;5064052;28;20048;-89
2022/03/25 10:40:23;;;;;;;48.65;29.85;;;;;;;28.22;22.31;102093.34;5071182;28;20013;-89
2022/03/25 10:43:07;;;;;;;45.05;29.13;;;;;;;28.77;22.22;102099.50;5069218;28;20130;-89
2022/03/25 10:45:34;;;;;;;42.60;27.90;;;;;;;28.76;20.92;102098.66;5059439;28;20029;-89
2022/03/25 10:48:19;;;;;;;43.70;28.60;;;;;;;28.59;20.81;102091.75;5060134;28;20052;-89
2022/03/25 10:50:57;;;;;;;41.33;27.05;;;;;;;28.98;20.88;102096.94;5066400;28;20021;-89
2022/03/25 10:53:24;;;;;;;45.22;28.83;;;;;;;28.82;21.00;102097.94;5066046;28;20163;-88
2022/03/25 10:56:10;;;;;;;41.85;28.00;;;;;;;28.82;21.03;102092.53;5071132;28;20112;-90
2022/03/25 10:58:36;;;;;;;45.92;27.75;;;;;;;28.79;21.24;102089.34;5051225;28;20029;-90
2022/03/25 11:01:03;;;;;;;44.85;26.13;;;;;;;29.30;21.29;102092.19;5051045;28;20049;-89
2022/03/25 11:03:29;;;;;;;40.80;25.80;;;;;;;29.49;20.97;102093.50;5061903;28;20107;-89
2022/03/25 11:05:54;;;;;;;39.85;26.65;;;;;;;29.20;20.85;102094.34;5072527;28;20487;-89
2022/03/25 11:08:21;;;;;;;44.88;26.88;;;;;;;29.37;20.78;102095.00;5088557;28;20333;-90
2022/03/25 11:10:47;;;;;;;44.47;25.17;;;;;;;29.48;20.49;102086.38;5086177;28;20043;-90
2022/03/25 11:13:12;;;;;;;36.80;23.63;;;;;;;29.57;18.94;102089.84;5060108;28;20017;-90